sensor_id;sensor_type;location;lat;lon;timestamp;P1;durP1;ratioP1;P2;durP2;ratioP2
11962;SDS011;62678;52.130;5.584;2023-11-21T00:00:53;76.82;;;30.27;;
11962;SDS011;62678;52.130;5.584;2023-11-21T00:03:20;68.90;;;30.00;;
11962;SDS011;62678;52.130;5.584;2023-11-21T00:05:48;70.22;;;28.70;;
11962;SDS011;62678;52.130;5.584;2023-11-21T00:08:15;72.70;;;29.92;;
11962;SDS011;62678;52.130;5.584;2023-11-21T00:10:44;75.72;;;30.38;;
11962;SDS011;62678;52.130;5.584;2023-11-21T00:13:11;71.45;;;30.23;;
11962;SDS011;62678;52.130;5.584;2023-11-21T00:15:38;71.03;;;29.92;;
11962;SDS011;62678;52.130;5.584;2023-11-21T00:18:05;75.43;;;29.98;;
11962;SDS011;62678;52.130;5.584;2023-11-21T00:20:33;67.10;;;28.98;;
11962;SDS011;62678;52.130;5.584;2023-11-21T00:23:00;89.15;;;34.08;;
11962;SDS011;62678;52.130;5.584;2023-11-21T00:25:27;74.13;;;29.95;;
11962;SDS011;62678;52.130;5.584;2023-11-21T00:27:56;59.92;;;27.73;;
11962;SDS011;62678;52.130;5.584;2023-11-21T00:30:24;68.97;;;28.65;;
11962;SDS011;62678;52.130;5.584;2023-11-21T00:32:51;60.05;;;26.95;;
11962;SDS011;62678;52.130;5.584;2023-11-21T00:35:18;67.25;;;28.38;;
11962;SDS011;62678;52.130;5.584;2023-11-21T00:37:45;56.85;;;25.48;;
11962;SDS011;62678;52.130;5.584;2023-11-21T00:40:14;55.50;;;25.23;;
11962;SDS011;62678;52.130;5.584;2023-11-21T00:42:44;57.38;;;26.25;;
11962;SDS011;62678;52.130;5.584;2023-11-21T00:45:12;54.63;;;25.25;;
11962;SDS011;62678;52.130;5.584;2023-11-21T00:47:40;57.67;;;26.13;;
11962;SDS011;62678;52.130;5.584;2023-11-21T00:50:07;55.97;;;26.30;;
11962;SDS011;62678;52.130;5.584;2023-11-21T00:52:35;55.30;;;26.33;;
11962;SDS011;62678;52.130;5.584;2023-11-21T00:55:02;66.82;;;29.15;;
11962;SDS011;62678;52.130;5.584;2023-11-21T00:57:29;61.80;;;27.85;;
11962;SDS011;62678;52.130;5.584;2023-11-21T00:59:56;67.63;;;28.20;;
11962;SDS011;62678;52.130;5.584;2023-11-21T01:02:25;61.05;;;27.45;;
11962;SDS011;62678;52.130;5.584;2023-11-21T01:04:52;53.50;;;25.88;;
11962;SDS011;62678;52.130;5.584;2023-11-21T01:07:19;64.38;;;28.50;;
11962;SDS011;62678;52.130;5.584;2023-11-21T01:09:46;72.75;;;28.75;;
11962;SDS011;62678;52.130;5.584;2023-11-21T01:12:13;62.45;;;29.05;;
11962;SDS011;62678;52.130;5.584;2023-11-21T01:14:42;65.03;;;29.83;;
11962;SDS011;62678;52.130;5.584;2023-11-21T01:17:10;61.55;;;27.88;;
11962;SDS011;62678;52.130;5.584;2023-11-21T01:19:38;63.90;;;27.77;;
11962;SDS011;62678;52.130;5.584;2023-11-21T01:22:06;71.65;;;29.63;;
11962;SDS011;62678;52.130;5.584;2023-11-21T01:24:33;59.80;;;28.60;;
11962;SDS011;62678;52.130;5.584;2023-11-21T01:27:01;67.63;;;31.13;;
11962;SDS011;62678;52.130;5.584;2023-11-21T01:29:29;61.42;;;29.45;;
11962;SDS011;62678;52.130;5.584;2023-11-21T01:31:56;69.35;;;29.90;;
11962;SDS011;62678;52.130;5.584;2023-11-21T01:34:23;60.40;;;28.65;;
11962;SDS011;62678;52.130;5.584;2023-11-21T01:36:52;62.13;;;28.48;;
11962;SDS011;62678;52.130;5.584;2023-11-21T01:39:19;60.47;;;28.40;;
11962;SDS011;62678;52.130;5.584;2023-11-21T01:41:48;60.95;;;28.52;;
11962;SDS011;62678;52.130;5.584;2023-11-21T01:44:16;69.00;;;30.85;;
11962;SDS011;62678;52.130;5.584;2023-11-21T01:46:44;73.03;;;29.98;;
11962;SDS011;62678;52.130;5.584;2023-11-21T01:49:11;64.75;;;30.38;;
11962;SDS011;62678;52.130;5.584;2023-11-21T01:54:08;75.50;;;32.28;;
11962;SDS011;62678;52.130;5.584;2023-11-21T01:56:36;68.25;;;30.60;;
11962;SDS011;62678;52.130;5.584;2023-11-21T01:59:04;68.70;;;31.73;;
11962;SDS011;62678;52.130;5.584;2023-11-21T02:01:32;75.30;;;32.53;;
11962;SDS011;62678;52.130;5.584;2023-11-21T02:03:59;73.47;;;32.25;;
11962;SDS011;62678;52.130;5.584;2023-11-21T02:06:26;64.50;;;32.80;;
11962;SDS011;62678;52.130;5.584;2023-11-21T02:08:56;75.65;;;32.95;;
11962;SDS011;62678;52.130;5.584;2023-11-21T02:11:26;69.85;;;33.13;;
11962;SDS011;62678;52.130;5.584;2023-11-21T02:13:53;74.15;;;33.47;;
11962;SDS011;62678;52.130;5.584;2023-11-21T02:16:20;73.40;;;33.67;;
11962;SDS011;62678;52.130;5.584;2023-11-21T02:18:47;71.22;;;35.50;;
11962;SDS011;62678;52.130;5.584;2023-11-21T02:21:14;79.05;;;35.17;;
11962;SDS011;62678;52.130;5.584;2023-11-21T02:23:43;77.07;;;33.95;;
11962;SDS011;62678;52.130;5.584;2023-11-21T02:26:11;69.70;;;32.90;;
11962;SDS011;62678;52.130;5.584;2023-11-21T02:28:39;76.78;;;34.97;;
11962;SDS011;62678;52.130;5.584;2023-11-21T02:31:07;70.45;;;34.55;;
11962;SDS011;62678;52.130;5.584;2023-11-21T02:33:34;68.55;;;33.75;;
11962;SDS011;62678;52.130;5.584;2023-11-21T02:36:02;67.55;;;32.20;;
11962;SDS011;62678;52.130;5.584;2023-11-21T02:38:30;61.80;;;31.45;;
11962;SDS011;62678;52.130;5.584;2023-11-21T02:40:59;66.60;;;30.83;;
11962;SDS011;62678;52.130;5.584;2023-11-21T02:43:26;58.63;;;30.80;;
11962;SDS011;62678;52.130;5.584;2023-11-21T02:45:56;57.67;;;29.45;;
11962;SDS011;62678;52.130;5.584;2023-11-21T02:48:23;61.95;;;30.35;;
11962;SDS011;62678;52.130;5.584;2023-11-21T02:50:50;57.90;;;30.30;;
11962;SDS011;62678;52.130;5.584;2023-11-21T02:53:18;56.80;;;29.38;;
11962;SDS011;62678;52.130;5.584;2023-11-21T02:55:45;60.67;;;29.38;;
11962;SDS011;62678;52.130;5.584;2023-11-21T02:58:13;53.75;;;29.52;;
11962;SDS011;62678;52.130;5.584;2023-11-21T03:00:41;52.75;;;30.15;;
11962;SDS011;62678;52.130;5.584;2023-11-21T03:03:08;52.90;;;27.88;;
11962;SDS011;62678;52.130;5.584;2023-11-21T03:05:35;50.83;;;28.60;;
11962;SDS011;62678;52.130;5.584;2023-11-21T03:08:02;51.92;;;26.65;;
11962;SDS011;62678;52.130;5.584;2023-11-21T03:10:30;51.17;;;28.95;;
11962;SDS011;62678;52.130;5.584;2023-11-21T03:12:58;55.38;;;27.50;;
11962;SDS011;62678;52.130;5.584;2023-11-21T03:15:26;50.20;;;26.85;;
11962;SDS011;62678;52.130;5.584;2023-11-21T03:17:53;52.17;;;27.00;;
11962;SDS011;62678;52.130;5.584;2023-11-21T03:20:20;47.85;;;26.55;;
11962;SDS011;62678;52.130;5.584;2023-11-21T03:22:47;51.22;;;26.50;;
11962;SDS011;62678;52.130;5.584;2023-11-21T03:25:15;46.85;;;25.83;;
11962;SDS011;62678;52.130;5.584;2023-11-21T03:27:42;45.05;;;24.55;;
11962;SDS011;62678;52.130;5.584;2023-11-21T03:30:10;46.03;;;25.33;;
11962;SDS011;62678;52.130;5.584;2023-11-21T03:32:39;43.35;;;24.08;;
11962;SDS011;62678;52.130;5.584;2023-11-21T03:35:06;45.55;;;24.45;;
11962;SDS011;62678;52.130;5.584;2023-11-21T03:37:33;43.28;;;24.75;;
11962;SDS011;62678;52.130;5.584;2023-11-21T03:40:01;45.08;;;24.52;;
11962;SDS011;62678;52.130;5.584;2023-11-21T03:42:29;41.30;;;23.65;;
11962;SDS011;62678;52.130;5.584;2023-11-21T03:44:56;39.70;;;24.17;;
11962;SDS011;62678;52.130;5.584;2023-11-21T03:47:23;40.95;;;23.33;;
11962;SDS011;62678;52.130;5.584;2023-11-21T03:49:51;44.35;;;25.15;;
11962;SDS011;62678;52.130;5.584;2023-11-21T03:52:18;46.03;;;23.10;;
11962;SDS011;62678;52.130;5.584;2023-11-21T03:54:46;37.25;;;22.83;;
11962;SDS011;62678;52.130;5.584;2023-11-21T03:57:13;41.10;;;22.38;;
11962;SDS011;62678;52.130;5.584;2023-11-21T03:59:40;39.83;;;23.48;;
11962;SDS011;62678;52.130;5.584;2023-11-21T04:02:07;42.92;;;22.27;;
11962;SDS011;62678;52.130;5.584;2023-11-21T04:04:34;42.58;;;23.15;;
11962;SDS011;62678;52.130;5.584;2023-11-21T04:07:03;40.40;;;22.30;;
11962;SDS011;62678;52.130;5.584;2023-11-21T04:09:30;41.28;;;22.67;;
11962;SDS011;62678;52.130;5.584;2023-11-21T04:11:58;42.55;;;22.67;;
11962;SDS011;62678;52.130;5.584;2023-11-21T04:14:25;42.10;;;22.50;;
11962;SDS011;62678;52.130;5.584;2023-11-21T04:16:52;43.72;;;22.30;;
11962;SDS011;62678;52.130;5.584;2023-11-21T04:19:19;40.55;;;21.52;;
11962;SDS011;62678;52.130;5.584;2023-11-21T04:21:46;36.83;;;20.95;;
11962;SDS011;62678;52.130;5.584;2023-11-21T04:24:15;42.35;;;21.20;;
11962;SDS011;62678;52.130;5.584;2023-11-21T04:26:43;38.85;;;21.33;;
11962;SDS011;62678;52.130;5.584;2023-11-21T04:29:10;34.90;;;21.80;;
11962;SDS011;62678;52.130;5.584;2023-11-21T04:31:37;36.60;;;21.30;;
11962;SDS011;62678;52.130;5.584;2023-11-21T04:34:04;39.42;;;21.95;;
11962;SDS011;62678;52.130;5.584;2023-11-21T04:36:31;41.03;;;22.10;;
11962;SDS011;62678;52.130;5.584;2023-11-21T04:38:59;37.33;;;21.60;;
11962;SDS011;62678;52.130;5.584;2023-11-21T04:41:28;41.53;;;21.95;;
11962;SDS011;62678;52.130;5.584;2023-11-21T04:43:56;37.05;;;21.17;;
11962;SDS011;62678;52.130;5.584;2023-11-21T04:46:25;39.13;;;21.92;;
11962;SDS011;62678;52.130;5.584;2023-11-21T04:48:52;40.97;;;21.95;;
11962;SDS011;62678;52.130;5.584;2023-11-21T04:51:19;38.95;;;21.83;;
11962;SDS011;62678;52.130;5.584;2023-11-21T04:53:47;39.20;;;20.42;;
11962;SDS011;62678;52.130;5.584;2023-11-21T04:56:14;39.00;;;21.35;;
11962;SDS011;62678;52.130;5.584;2023-11-21T04:58:43;40.85;;;20.90;;
11962;SDS011;62678;52.130;5.584;2023-11-21T05:01:10;37.63;;;21.92;;
11962;SDS011;62678;52.130;5.584;2023-11-21T05:03:38;44.83;;;22.45;;
11962;SDS011;62678;52.130;5.584;2023-11-21T05:06:05;41.15;;;22.27;;
11962;SDS011;62678;52.130;5.584;2023-11-21T05:08:32;46.50;;;22.63;;
11962;SDS011;62678;52.130;5.584;2023-11-21T05:11:00;42.55;;;23.10;;
11962;SDS011;62678;52.130;5.584;2023-11-21T05:13:27;48.88;;;22.00;;
11962;SDS011;62678;52.130;5.584;2023-11-21T05:15:55;45.65;;;22.67;;
11962;SDS011;62678;52.130;5.584;2023-11-21T05:18:23;46.90;;;22.42;;
11962;SDS011;62678;52.130;5.584;2023-11-21T05:20:52;48.28;;;23.17;;
11962;SDS011;62678;52.130;5.584;2023-11-21T05:23:19;44.60;;;23.63;;
11962;SDS011;62678;52.130;5.584;2023-11-21T05:25:46;47.60;;;23.30;;
11962;SDS011;62678;52.130;5.584;2023-11-21T05:28:13;48.83;;;24.50;;
11962;SDS011;62678;52.130;5.584;2023-11-21T05:30:41;54.30;;;24.88;;
11962;SDS011;62678;52.130;5.584;2023-11-21T05:33:10;50.58;;;25.00;;
11962;SDS011;62678;52.130;5.584;2023-11-21T05:35:37;44.95;;;23.55;;
11962;SDS011;62678;52.130;5.584;2023-11-21T05:38:04;43.60;;;25.05;;
11962;SDS011;62678;52.130;5.584;2023-11-21T05:40:31;49.60;;;25.17;;
11962;SDS011;62678;52.130;5.584;2023-11-21T05:42:58;49.28;;;25.17;;
11962;SDS011;62678;52.130;5.584;2023-11-21T05:45:25;52.17;;;25.88;;
11962;SDS011;62678;52.130;5.584;2023-11-21T05:47:54;52.42;;;25.35;;
11962;SDS011;62678;52.130;5.584;2023-11-21T05:50:22;51.85;;;25.77;;
11962;SDS011;62678;52.130;5.584;2023-11-21T05:52:49;49.30;;;25.52;;
11962;SDS011;62678;52.130;5.584;2023-11-21T05:55:16;45.95;;;25.13;;
11962;SDS011;62678;52.130;5.584;2023-11-21T05:57:46;47.67;;;25.27;;
11962;SDS011;62678;52.130;5.584;2023-11-21T06:00:14;53.30;;;26.27;;
11962;SDS011;62678;52.130;5.584;2023-11-21T06:02:45;52.13;;;26.00;;
11962;SDS011;62678;52.130;5.584;2023-11-21T06:05:12;54.13;;;26.70;;
11962;SDS011;62678;52.130;5.584;2023-11-21T06:07:40;45.85;;;24.95;;
11962;SDS011;62678;52.130;5.584;2023-11-21T06:10:08;51.55;;;26.30;;
11962;SDS011;62678;52.130;5.584;2023-11-21T06:12:36;52.85;;;26.42;;
11962;SDS011;62678;52.130;5.584;2023-11-21T06:15:03;55.20;;;24.75;;
11962;SDS011;62678;52.130;5.584;2023-11-21T06:17:33;54.90;;;26.90;;
11962;SDS011;62678;52.130;5.584;2023-11-21T06:20:01;50.97;;;26.05;;
11962;SDS011;62678;52.130;5.584;2023-11-21T06:22:34;50.20;;;25.63;;
11962;SDS011;62678;52.130;5.584;2023-11-21T06:25:02;53.40;;;25.70;;
11962;SDS011;62678;52.130;5.584;2023-11-21T06:27:30;50.38;;;26.65;;
11962;SDS011;62678;52.130;5.584;2023-11-21T06:29:58;51.83;;;25.90;;
11962;SDS011;62678;52.130;5.584;2023-11-21T06:32:25;51.78;;;26.90;;
11962;SDS011;62678;52.130;5.584;2023-11-21T06:34:54;53.03;;;26.08;;
11962;SDS011;62678;52.130;5.584;2023-11-21T06:37:24;46.28;;;26.05;;
11962;SDS011;62678;52.130;5.584;2023-11-21T06:39:51;51.33;;;27.27;;
11962;SDS011;62678;52.130;5.584;2023-11-21T06:42:20;51.97;;;27.80;;
11962;SDS011;62678;52.130;5.584;2023-11-21T06:44:47;56.78;;;27.55;;
11962;SDS011;62678;52.130;5.584;2023-11-21T06:47:16;54.75;;;27.98;;
11962;SDS011;62678;52.130;5.584;2023-11-21T06:49:45;57.88;;;28.95;;
11962;SDS011;62678;52.130;5.584;2023-11-21T06:52:13;59.92;;;29.30;;
11962;SDS011;62678;52.130;5.584;2023-11-21T06:54:40;64.30;;;31.23;;
11962;SDS011;62678;52.130;5.584;2023-11-21T06:57:07;60.60;;;30.73;;
11962;SDS011;62678;52.130;5.584;2023-11-21T06:59:35;66.13;;;31.90;;
11962;SDS011;62678;52.130;5.584;2023-11-21T07:02:03;67.80;;;32.72;;
11962;SDS011;62678;52.130;5.584;2023-11-21T07:04:31;67.90;;;32.38;;
11962;SDS011;62678;52.130;5.584;2023-11-21T07:06:58;66.68;;;32.80;;
11962;SDS011;62678;52.130;5.584;2023-11-21T07:09:25;63.70;;;32.60;;
11962;SDS011;62678;52.130;5.584;2023-11-21T07:11:53;68.93;;;34.80;;
11962;SDS011;62678;52.130;5.584;2023-11-21T07:14:20;69.60;;;33.22;;
11962;SDS011;62678;52.130;5.584;2023-11-21T07:16:48;72.10;;;34.95;;
11962;SDS011;62678;52.130;5.584;2023-11-21T07:19:17;70.15;;;35.67;;
11962;SDS011;62678;52.130;5.584;2023-11-21T07:21:44;72.60;;;34.45;;
11962;SDS011;62678;52.130;5.584;2023-11-21T07:24:12;77.50;;;36.13;;
11962;SDS011;62678;52.130;5.584;2023-11-21T07:26:39;76.70;;;37.33;;
11962;SDS011;62678;52.130;5.584;2023-11-21T07:29:06;67.65;;;33.83;;
11962;SDS011;62678;52.130;5.584;2023-11-21T07:31:33;69.70;;;32.40;;
11962;SDS011;62678;52.130;5.584;2023-11-21T07:34:01;66.15;;;32.38;;
11962;SDS011;62678;52.130;5.584;2023-11-21T07:36:29;64.30;;;32.05;;
11962;SDS011;62678;52.130;5.584;2023-11-21T07:38:56;67.25;;;32.53;;
11962;SDS011;62678;52.130;5.584;2023-11-21T07:41:25;61.33;;;29.67;;
11962;SDS011;62678;52.130;5.584;2023-11-21T07:43:54;69.25;;;31.95;;
11962;SDS011;62678;52.130;5.584;2023-11-21T07:46:22;72.38;;;31.20;;
11962;SDS011;62678;52.130;5.584;2023-11-21T07:48:51;58.33;;;30.45;;
11962;SDS011;62678;52.130;5.584;2023-11-21T07:51:20;61.63;;;30.88;;
11962;SDS011;62678;52.130;5.584;2023-11-21T07:53:47;64.78;;;32.10;;
11962;SDS011;62678;52.130;5.584;2023-11-21T07:56:14;58.38;;;30.08;;
11962;SDS011;62678;52.130;5.584;2023-11-21T07:58:43;56.97;;;27.88;;
11962;SDS011;62678;52.130;5.584;2023-11-21T08:01:10;59.72;;;28.85;;
11962;SDS011;62678;52.130;5.584;2023-11-21T08:03:37;52.55;;;27.73;;
11962;SDS011;62678;52.130;5.584;2023-11-21T08:06:05;52.20;;;27.17;;
11962;SDS011;62678;52.130;5.584;2023-11-21T08:08:34;50.85;;;26.58;;
11962;SDS011;62678;52.130;5.584;2023-11-21T08:11:01;61.15;;;28.48;;
11962;SDS011;62678;52.130;5.584;2023-11-21T08:13:29;57.13;;;27.10;;
11962;SDS011;62678;52.130;5.584;2023-11-21T08:15:56;50.25;;;26.83;;
11962;SDS011;62678;52.130;5.584;2023-11-21T08:18:28;52.38;;;26.25;;
11962;SDS011;62678;52.130;5.584;2023-11-21T08:20:55;46.50;;;24.40;;
11962;SDS011;62678;52.130;5.584;2023-11-21T08:23:23;58.42;;;31.73;;
11962;SDS011;62678;52.130;5.584;2023-11-21T08:25:52;68.35;;;35.50;;
11962;SDS011;62678;52.130;5.584;2023-11-21T08:28:19;57.65;;;29.75;;
11962;SDS011;62678;52.130;5.584;2023-11-21T08:30:48;53.13;;;25.23;;
11962;SDS011;62678;52.130;5.584;2023-11-21T08:33:15;49.05;;;25.55;;
11962;SDS011;62678;52.130;5.584;2023-11-21T08:35:43;51.50;;;25.35;;
11962;SDS011;62678;52.130;5.584;2023-11-21T08:38:10;49.05;;;24.60;;
11962;SDS011;62678;52.130;5.584;2023-11-21T08:40:38;43.35;;;24.85;;
11962;SDS011;62678;52.130;5.584;2023-11-21T08:43:07;44.42;;;24.05;;
11962;SDS011;62678;52.130;5.584;2023-11-21T08:45:34;60.35;;;24.35;;
11962;SDS011;62678;52.130;5.584;2023-11-21T08:48:01;49.85;;;24.73;;
11962;SDS011;62678;52.130;5.584;2023-11-21T08:50:29;53.10;;;25.60;;
11962;SDS011;62678;52.130;5.584;2023-11-21T08:52:56;51.25;;;24.08;;
11962;SDS011;62678;52.130;5.584;2023-11-21T08:55:23;59.45;;;25.83;;
11962;SDS011;62678;52.130;5.584;2023-11-21T08:57:51;58.08;;;25.58;;
11962;SDS011;62678;52.130;5.584;2023-11-21T09:00:19;55.65;;;25.10;;
11962;SDS011;62678;52.130;5.584;2023-11-21T09:02:47;52.35;;;26.38;;
11962;SDS011;62678;52.130;5.584;2023-11-21T09:05:14;57.13;;;26.35;;
11962;SDS011;62678;52.130;5.584;2023-11-21T09:07:42;55.53;;;25.42;;
11962;SDS011;62678;52.130;5.584;2023-11-21T09:10:11;49.25;;;24.88;;
11962;SDS011;62678;52.130;5.584;2023-11-21T09:12:38;63.33;;;26.23;;
11962;SDS011;62678;52.130;5.584;2023-11-21T09:15:06;47.53;;;25.48;;
11962;SDS011;62678;52.130;5.584;2023-11-21T09:17:36;51.72;;;26.08;;
11962;SDS011;62678;52.130;5.584;2023-11-21T09:20:04;45.47;;;25.40;;
11962;SDS011;62678;52.130;5.584;2023-11-21T09:22:35;41.85;;;22.60;;
11962;SDS011;62678;52.130;5.584;2023-11-21T09:25:02;34.55;;;20.75;;
11962;SDS011;62678;52.130;5.584;2023-11-21T09:27:31;32.30;;;20.55;;
11962;SDS011;62678;52.130;5.584;2023-11-21T09:29:58;33.13;;;20.25;;
11962;SDS011;62678;52.130;5.584;2023-11-21T09:32:25;28.95;;;19.50;;
11962;SDS011;62678;52.130;5.584;2023-11-21T09:34:54;28.05;;;19.10;;
11962;SDS011;62678;52.130;5.584;2023-11-21T09:37:23;26.55;;;19.10;;
11962;SDS011;62678;52.130;5.584;2023-11-21T09:39:52;27.15;;;17.80;;
11962;SDS011;62678;52.130;5.584;2023-11-21T09:42:22;27.75;;;18.67;;
11962;SDS011;62678;52.130;5.584;2023-11-21T09:44:52;23.98;;;16.35;;
11962;SDS011;62678;52.130;5.584;2023-11-21T09:47:21;22.42;;;16.27;;
11962;SDS011;62678;52.130;5.584;2023-11-21T09:49:49;22.73;;;16.02;;
11962;SDS011;62678;52.130;5.584;2023-11-21T09:52:21;25.40;;;16.58;;
11962;SDS011;62678;52.130;5.584;2023-11-21T09:54:50;22.40;;;16.65;;
11962;SDS011;62678;52.130;5.584;2023-11-21T09:57:18;23.27;;;16.80;;
11962;SDS011;62678;52.130;5.584;2023-11-21T09:59:46;22.88;;;16.70;;
11962;SDS011;62678;52.130;5.584;2023-11-21T10:02:15;27.52;;;17.27;;
11962;SDS011;62678;52.130;5.584;2023-11-21T10:04:43;24.95;;;16.15;;
11962;SDS011;62678;52.130;5.584;2023-11-21T10:07:11;24.45;;;16.38;;
11962;SDS011;62678;52.130;5.584;2023-11-21T10:09:41;20.88;;;14.88;;
11962;SDS011;62678;52.130;5.584;2023-11-21T10:12:09;21.23;;;14.95;;
11962;SDS011;62678;52.130;5.584;2023-11-21T10:14:37;21.83;;;15.45;;
11962;SDS011;62678;52.130;5.584;2023-11-21T10:17:09;21.38;;;15.45;;
11962;SDS011;62678;52.130;5.584;2023-11-21T10:19:38;22.48;;;15.73;;
11962;SDS011;62678;52.130;5.584;2023-11-21T10:22:06;24.65;;;17.02;;
11962;SDS011;62678;52.130;5.584;2023-11-21T10:24:34;23.65;;;15.70;;
11962;SDS011;62678;52.130;5.584;2023-11-21T10:27:04;21.67;;;14.95;;
11962;SDS011;62678;52.130;5.584;2023-11-21T10:29:31;21.90;;;14.20;;
11962;SDS011;62678;52.130;5.584;2023-11-21T10:32:01;19.55;;;13.23;;
11962;SDS011;62678;52.130;5.584;2023-11-21T10:34:28;19.45;;;13.23;;
11962;SDS011;62678;52.130;5.584;2023-11-21T10:36:56;22.45;;;13.68;;
11962;SDS011;62678;52.130;5.584;2023-11-21T10:39:24;22.42;;;14.68;;
11962;SDS011;62678;52.130;5.584;2023-11-21T10:41:54;22.45;;;14.55;;
11962;SDS011;62678;52.130;5.584;2023-11-21T10:44:23;21.35;;;14.38;;
11962;SDS011;62678;52.130;5.584;2023-11-21T10:46:51;21.77;;;14.07;;
11962;SDS011;62678;52.130;5.584;2023-11-21T10:49:21;23.73;;;15.07;;
11962;SDS011;62678;52.130;5.584;2023-11-21T10:51:49;21.70;;;14.25;;
11962;SDS011;62678;52.130;5.584;2023-11-21T10:54:18;19.70;;;14.00;;
11962;SDS011;62678;52.130;5.584;2023-11-21T10:56:47;18.50;;;11.40;;
11962;SDS011;62678;52.130;5.584;2023-11-21T10:59:16;21.02;;;13.88;;
11962;SDS011;62678;52.130;5.584;2023-11-21T11:01:47;22.48;;;14.15;;
11962;SDS011;62678;52.130;5.584;2023-11-21T11:04:16;23.10;;;14.52;;
11962;SDS011;62678;52.130;5.584;2023-11-21T11:06:45;20.52;;;12.50;;
11962;SDS011;62678;52.130;5.584;2023-11-21T11:09:13;20.73;;;13.77;;
11962;SDS011;62678;52.130;5.584;2023-11-21T11:11:41;23.83;;;13.88;;
11962;SDS011;62678;52.130;5.584;2023-11-21T11:14:10;22.70;;;13.82;;
11962;SDS011;62678;52.130;5.584;2023-11-21T11:16:38;24.73;;;13.80;;
11962;SDS011;62678;52.130;5.584;2023-11-21T11:19:07;21.45;;;13.07;;
11962;SDS011;62678;52.130;5.584;2023-11-21T11:21:37;25.70;;;14.63;;
11962;SDS011;62678;52.130;5.584;2023-11-21T11:26:56;23.25;;;13.27;;
11962;SDS011;62678;52.130;5.584;2023-11-21T11:29:27;19.00;;;11.80;;
11962;SDS011;62678;52.130;5.584;2023-11-21T11:32:00;22.55;;;12.60;;
11962;SDS011;62678;52.130;5.584;2023-11-21T11:34:32;18.15;;;11.27;;
11962;SDS011;62678;52.130;5.584;2023-11-21T11:37:03;17.42;;;10.75;;
11962;SDS011;62678;52.130;5.584;2023-11-21T11:39:30;19.33;;;11.63;;
11962;SDS011;62678;52.130;5.584;2023-11-21T11:41:58;18.52;;;11.88;;
11962;SDS011;62678;52.130;5.584;2023-11-21T11:47:13;22.05;;;14.07;;
11962;SDS011;62678;52.130;5.584;2023-11-21T11:49:48;22.35;;;13.63;;
11962;SDS011;62678;52.130;5.584;2023-11-21T11:52:34;22.25;;;13.55;;
11962;SDS011;62678;52.130;5.584;2023-11-21T11:55:01;23.90;;;14.88;;
11962;SDS011;62678;52.130;5.584;2023-11-21T11:57:29;22.65;;;13.52;;
11962;SDS011;62678;52.130;5.584;2023-11-21T12:00:13;22.05;;;13.63;;
11962;SDS011;62678;52.130;5.584;2023-11-21T12:02:44;22.73;;;12.68;;
11962;SDS011;62678;52.130;5.584;2023-11-21T12:05:13;23.80;;;14.75;;
11962;SDS011;62678;52.130;5.584;2023-11-21T12:07:47;23.98;;;14.93;;
11962;SDS011;62678;52.130;5.584;2023-11-21T12:10:15;26.13;;;14.90;;
11962;SDS011;62678;52.130;5.584;2023-11-21T12:12:44;22.88;;;15.23;;
11962;SDS011;62678;52.130;5.584;2023-11-21T12:15:12;22.67;;;14.73;;
11962;SDS011;62678;52.130;5.584;2023-11-21T12:17:39;23.80;;;15.23;;
11962;SDS011;62678;52.130;5.584;2023-11-21T12:20:07;24.35;;;15.60;;
11962;SDS011;62678;52.130;5.584;2023-11-21T12:22:41;27.13;;;15.73;;
11962;SDS011;62678;52.130;5.584;2023-11-21T12:25:09;25.38;;;16.48;;
11962;SDS011;62678;52.130;5.584;2023-11-21T12:27:41;27.77;;;15.93;;
11962;SDS011;62678;52.130;5.584;2023-11-21T12:30:08;23.98;;;14.82;;
11962;SDS011;62678;52.130;5.584;2023-11-21T12:32:38;23.75;;;15.60;;
11962;SDS011;62678;52.130;5.584;2023-11-21T12:35:06;25.65;;;16.10;;
11962;SDS011;62678;52.130;5.584;2023-11-21T12:37:33;22.77;;;14.98;;
11962;SDS011;62678;52.130;5.584;2023-11-21T12:40:02;22.42;;;15.05;;
11962;SDS011;62678;52.130;5.584;2023-11-21T12:42:29;23.08;;;14.85;;
11962;SDS011;62678;52.130;5.584;2023-11-21T12:45:07;23.60;;;15.23;;
11962;SDS011;62678;52.130;5.584;2023-11-21T12:47:34;21.50;;;14.68;;
11962;SDS011;62678;52.130;5.584;2023-11-21T12:50:02;22.95;;;15.70;;
11962;SDS011;62678;52.130;5.584;2023-11-21T12:52:31;20.00;;;14.75;;
11962;SDS011;62678;52.130;5.584;2023-11-21T12:54:58;20.98;;;14.68;;
11962;SDS011;62678;52.130;5.584;2023-11-21T12:57:27;21.67;;;14.77;;
11962;SDS011;62678;52.130;5.584;2023-11-21T12:59:56;20.35;;;14.57;;
11962;SDS011;62678;52.130;5.584;2023-11-21T13:02:25;20.98;;;13.60;;
11962;SDS011;62678;52.130;5.584;2023-11-21T13:04:53;21.05;;;14.25;;
11962;SDS011;62678;52.130;5.584;2023-11-21T13:07:23;20.42;;;13.88;;
11962;SDS011;62678;52.130;5.584;2023-11-21T13:09:51;20.17;;;13.48;;
11962;SDS011;62678;52.130;5.584;2023-11-21T13:12:23;19.17;;;13.68;;
11962;SDS011;62678;52.130;5.584;2023-11-21T13:14:51;20.98;;;15.50;;
11962;SDS011;62678;52.130;5.584;2023-11-21T13:17:19;18.02;;;13.60;;
11962;SDS011;62678;52.130;5.584;2023-11-21T13:19:49;19.60;;;13.80;;
11962;SDS011;62678;52.130;5.584;2023-11-21T13:22:16;21.65;;;14.23;;
11962;SDS011;62678;52.130;5.584;2023-11-21T13:24:43;19.30;;;13.10;;
11962;SDS011;62678;52.130;5.584;2023-11-21T13:27:10;18.55;;;11.75;;
11962;SDS011;62678;52.130;5.584;2023-11-21T13:29:40;16.98;;;11.63;;
11962;SDS011;62678;52.130;5.584;2023-11-21T13:32:08;13.70;;;9.10;;
11962;SDS011;62678;52.130;5.584;2023-11-21T13:34:37;8.85;;;6.70;;
11962;SDS011;62678;52.130;5.584;2023-11-21T13:37:04;9.27;;;6.53;;
11962;SDS011;62678;52.130;5.584;2023-11-21T13:39:32;8.75;;;5.30;;
11962;SDS011;62678;52.130;5.584;2023-11-21T13:42:00;8.52;;;6.05;;
11962;SDS011;62678;52.130;5.584;2023-11-21T13:44:30;11.00;;;6.00;;
11962;SDS011;62678;52.130;5.584;2023-11-21T13:47:03;8.43;;;5.70;;
11962;SDS011;62678;52.130;5.584;2023-11-21T13:49:32;7.93;;;5.80;;
11962;SDS011;62678;52.130;5.584;2023-11-21T13:52:05;9.43;;;6.80;;
11962;SDS011;62678;52.130;5.584;2023-11-21T13:54:36;11.15;;;6.22;;
11962;SDS011;62678;52.130;5.584;2023-11-21T13:57:03;10.30;;;7.38;;
11962;SDS011;62678;52.130;5.584;2023-11-21T13:59:31;14.27;;;8.77;;
11962;SDS011;62678;52.130;5.584;2023-11-21T14:01:58;13.25;;;9.65;;
11962;SDS011;62678;52.130;5.584;2023-11-21T14:04:39;16.02;;;10.57;;
11962;SDS011;62678;52.130;5.584;2023-11-21T14:07:19;17.52;;;11.63;;
11962;SDS011;62678;52.130;5.584;2023-11-21T14:09:57;19.75;;;11.88;;
11962;SDS011;62678;52.130;5.584;2023-11-21T14:12:25;19.30;;;12.05;;
11962;SDS011;62678;52.130;5.584;2023-11-21T14:14:53;19.58;;;12.63;;
11962;SDS011;62678;52.130;5.584;2023-11-21T14:17:20;21.50;;;13.95;;
11962;SDS011;62678;52.130;5.584;2023-11-21T14:19:50;22.63;;;13.63;;
11962;SDS011;62678;52.130;5.584;2023-11-21T14:22:17;22.63;;;13.90;;
11962;SDS011;62678;52.130;5.584;2023-11-21T14:24:45;22.50;;;15.00;;
11962;SDS011;62678;52.130;5.584;2023-11-21T14:27:15;25.17;;;15.95;;
11962;SDS011;62678;52.130;5.584;2023-11-21T14:29:42;24.73;;;15.93;;
11962;SDS011;62678;52.130;5.584;2023-11-21T14:32:10;25.58;;;15.35;;
11962;SDS011;62678;52.130;5.584;2023-11-21T14:34:39;21.42;;;14.10;;
11962;SDS011;62678;52.130;5.584;2023-11-21T14:37:09;24.90;;;15.02;;